sensor_id;sensor_type;location;lat;lon;timestamp;temperature;humidity
18177;DHT22;9213;50.858;3.964;2023-03-24T00:00:17;16.60;60.00
18177;DHT22;9213;50.858;3.964;2023-03-24T00:02:46;16.60;60.30
18177;DHT22;9213;50.858;3.964;2023-03-24T00:05:16;16.60;60.40
18177;DHT22;9213;50.858;3.964;2023-03-24T00:07:43;16.60;60.60
18177;DHT22;9213;50.858;3.964;2023-03-24T00:10:12;16.60;60.50
18177;DHT22;9213;50.858;3.964;2023-03-24T00:12:41;16.60;60.60
18177;DHT22;9213;50.858;3.964;2023-03-24T00:15:12;16.60;60.80
18177;DHT22;9213;50.858;3.964;2023-03-24T00:17:40;16.50;60.90
18177;DHT22;9213;50.858;3.964;2023-03-24T00:20:10;16.50;60.90
18177;DHT22;9213;50.858;3.964;2023-03-24T00:22:39;16.60;61.00
18177;DHT22;9213;50.858;3.964;2023-03-24T00:25:07;16.50;60.90
18177;DHT22;9213;50.858;3.964;2023-03-24T00:27:35;16.50;61.00
18177;DHT22;9213;50.858;3.964;2023-03-24T00:30:07;16.60;61.00
18177;DHT22;9213;50.858;3.964;2023-03-24T00:32:36;16.60;60.90
18177;DHT22;9213;50.858;3.964;2023-03-24T00:35:04;16.60;60.70
18177;DHT22;9213;50.858;3.964;2023-03-24T00:37:33;16.60;60.70
18177;DHT22;9213;50.858;3.964;2023-03-24T00:40:03;16.60;60.60
18177;DHT22;9213;50.858;3.964;2023-03-24T00:42:32;16.60;60.50
18177;DHT22;9213;50.858;3.964;2023-03-24T00:45:00;16.70;60.50
18177;DHT22;9213;50.858;3.964;2023-03-24T00:47:30;16.70;60.40
18177;DHT22;9213;50.858;3.964;2023-03-24T00:50:02;16.70;60.30
18177;DHT22;9213;50.858;3.964;2023-03-24T00:52:29;16.70;60.20
18177;DHT22;9213;50.858;3.964;2023-03-24T00:55:00;16.80;60.10
18177;DHT22;9213;50.858;3.964;2023-03-24T00:57:28;16.80;60.00
18177;DHT22;9213;50.858;3.964;2023-03-24T01:00:00;16.80;59.90
18177;DHT22;9213;50.858;3.964;2023-03-24T01:02:35;16.80;59.80
18177;DHT22;9213;50.858;3.964;2023-03-24T01:05:02;16.80;59.70
18177;DHT22;9213;50.858;3.964;2023-03-24T01:07:29;16.90;59.80
18177;DHT22;9213;50.858;3.964;2023-03-24T01:09:57;16.90;59.80
18177;DHT22;9213;50.858;3.964;2023-03-24T01:12:25;16.90;59.70
18177;DHT22;9213;50.858;3.964;2023-03-24T01:14:53;16.90;59.70
18177;DHT22;9213;50.858;3.964;2023-03-24T01:17:21;16.90;59.60
18177;DHT22;9213;50.858;3.964;2023-03-24T01:19:51;16.90;59.50
18177;DHT22;9213;50.858;3.964;2023-03-24T01:22:19;16.90;59.50
18177;DHT22;9213;50.858;3.964;2023-03-24T01:24:46;16.90;59.40
18177;DHT22;9213;50.858;3.964;2023-03-24T01:27:14;17.00;59.30
18177;DHT22;9213;50.858;3.964;2023-03-24T01:29:41;17.00;59.30
18177;DHT22;9213;50.858;3.964;2023-03-24T01:32:08;17.00;59.30
18177;DHT22;9213;50.858;3.964;2023-03-24T01:34:35;16.90;59.40
18177;DHT22;9213;50.858;3.964;2023-03-24T01:37:04;16.90;59.40
18177;DHT22;9213;50.858;3.964;2023-03-24T01:39:31;16.90;59.60
18177;DHT22;9213;50.858;3.964;2023-03-24T01:41:58;16.90;59.70
18177;DHT22;9213;50.858;3.964;2023-03-24T01:44:29;16.80;59.80
18177;DHT22;9213;50.858;3.964;2023-03-24T01:46:58;16.80;59.90
18177;DHT22;9213;50.858;3.964;2023-03-24T01:49:28;16.80;59.90
18177;DHT22;9213;50.858;3.964;2023-03-24T01:52:00;16.70;59.60
18177;DHT22;9213;50.858;3.964;2023-03-24T01:54:31;16.60;58.50
18177;DHT22;9213;50.858;3.964;2023-03-24T01:57:01;16.50;57.70
18177;DHT22;9213;50.858;3.964;2023-03-24T01:59:32;16.30;57.20
18177;DHT22;9213;50.858;3.964;2023-03-24T02:02:03;16.20;56.80
18177;DHT22;9213;50.858;3.964;2023-03-24T02:04:33;16.10;56.90
18177;DHT22;9213;50.858;3.964;2023-03-24T02:07:08;15.90;56.90
18177;DHT22;9213;50.858;3.964;2023-03-24T02:09:37;15.90;56.80
18177;DHT22;9213;50.858;3.964;2023-03-24T02:12:04;15.80;56.60
18177;DHT22;9213;50.858;3.964;2023-03-24T02:14:31;15.70;56.60
18177;DHT22;9213;50.858;3.964;2023-03-24T02:17:13;15.70;56.60
18177;DHT22;9213;50.858;3.964;2023-03-24T02:20:06;15.70;56.80
18177;DHT22;9213;50.858;3.964;2023-03-24T02:26:27;15.50;57.10
18177;DHT22;9213;50.858;3.964;2023-03-24T02:29:15;15.50;57.20
18177;DHT22;9213;50.858;3.964;2023-03-24T02:32:06;15.40;57.80
18177;DHT22;9213;50.858;3.964;2023-03-24T02:35:02;15.40;57.10
18177;DHT22;9213;50.858;3.964;2023-03-24T02:40:41;15.40;56.90
18177;DHT22;9213;50.858;3.964;2023-03-24T02:43:17;15.30;56.60
18177;DHT22;9213;50.858;3.964;2023-03-24T02:45:55;15.30;56.70
18177;DHT22;9213;50.858;3.964;2023-03-24T02:48:33;15.30;56.80
18177;DHT22;9213;50.858;3.964;2023-03-24T02:51:07;15.30;56.70
18177;DHT22;9213;50.858;3.964;2023-03-24T02:53:44;15.30;56.80
18177;DHT22;9213;50.858;3.964;2023-03-24T02:56:21;15.30;56.80
18177;DHT22;9213;50.858;3.964;2023-03-24T02:58:53;15.30;56.70
18177;DHT22;9213;50.858;3.964;2023-03-24T03:01:27;15.30;56.60
18177;DHT22;9213;50.858;3.964;2023-03-24T03:03:59;15.20;56.50
18177;DHT22;9213;50.858;3.964;2023-03-24T03:06:28;15.20;56.40
18177;DHT22;9213;50.858;3.964;2023-03-24T03:08:59;15.20;56.20
18177;DHT22;9213;50.858;3.964;2023-03-24T03:11:28;15.30;56.30
18177;DHT22;9213;50.858;3.964;2023-03-24T03:13:58;15.20;56.20
18177;DHT22;9213;50.858;3.964;2023-03-24T03:16:31;15.20;56.10
18177;DHT22;9213;50.858;3.964;2023-03-24T03:19:06;15.30;56.10
18177;DHT22;9213;50.858;3.964;2023-03-24T03:21:40;15.30;56.00
18177;DHT22;9213;50.858;3.964;2023-03-24T03:24:11;15.30;56.00
18177;DHT22;9213;50.858;3.964;2023-03-24T03:26:42;15.20;55.80
18177;DHT22;9213;50.858;3.964;2023-03-24T03:29:16;15.20;55.70
18177;DHT22;9213;50.858;3.964;2023-03-24T03:31:49;15.20;55.70
18177;DHT22;9213;50.858;3.964;2023-03-24T03:34:23;15.20;55.80
18177;DHT22;9213;50.858;3.964;2023-03-24T03:36:55;15.20;55.80
18177;DHT22;9213;50.858;3.964;2023-03-24T03:39:27;15.20;55.90
18177;DHT22;9213;50.858;3.964;2023-03-24T03:41:57;15.20;55.90
18177;DHT22;9213;50.858;3.964;2023-03-24T03:44:24;15.20;55.70
18177;DHT22;9213;50.858;3.964;2023-03-24T03:46:52;15.10;55.70
18177;DHT22;9213;50.858;3.964;2023-03-24T03:49:19;15.10;55.60
18177;DHT22;9213;50.858;3.964;2023-03-24T03:51:46;15.20;55.70
18177;DHT22;9213;50.858;3.964;2023-03-24T03:54:15;15.10;55.70
18177;DHT22;9213;50.858;3.964;2023-03-24T03:56:43;15.20;55.60
18177;DHT22;9213;50.858;3.964;2023-03-24T03:59:26;15.10;55.60
18177;DHT22;9213;50.858;3.964;2023-03-24T04:01:53;15.20;55.80
18177;DHT22;9213;50.858;3.964;2023-03-24T04:07:24;15.20;55.90
18177;DHT22;9213;50.858;3.964;2023-03-24T04:10:04;15.10;55.70
18177;DHT22;9213;50.858;3.964;2023-03-24T04:12:53;15.10;55.90
18177;DHT22;9213;50.858;3.964;2023-03-24T04:15:34;15.20;56.00
18177;DHT22;9213;50.858;3.964;2023-03-24T04:18:18;15.10;55.90
18177;DHT22;9213;50.858;3.964;2023-03-24T04:20:50;15.10;56.00
18177;DHT22;9213;50.858;3.964;2023-03-24T04:23:27;15.10;55.90
18177;DHT22;9213;50.858;3.964;2023-03-24T04:26:04;15.10;55.90
18177;DHT22;9213;50.858;3.964;2023-03-24T04:28:40;15.10;56.00
18177;DHT22;9213;50.858;3.964;2023-03-24T04:31:14;15.10;56.00
18177;DHT22;9213;50.858;3.964;2023-03-24T04:33:48;15.00;55.90
18177;DHT22;9213;50.858;3.964;2023-03-24T04:36:21;15.00;56.00
18177;DHT22;9213;50.858;3.964;2023-03-24T04:38:52;15.00;56.00
18177;DHT22;9213;50.858;3.964;2023-03-24T04:41:23;14.90;56.10
18177;DHT22;9213;50.858;3.964;2023-03-24T04:43:52;14.80;56.10
18177;DHT22;9213;50.858;3.964;2023-03-24T04:46:22;14.70;56.20
18177;DHT22;9213;50.858;3.964;2023-03-24T04:48:49;14.70;56.30
18177;DHT22;9213;50.858;3.964;2023-03-24T04:51:18;14.60;56.40
18177;DHT22;9213;50.858;3.964;2023-03-24T04:53:46;14.50;56.50
18177;DHT22;9213;50.858;3.964;2023-03-24T04:56:26;14.50;56.60
18177;DHT22;9213;50.858;3.964;2023-03-24T04:58:54;14.50;56.90
18177;DHT22;9213;50.858;3.964;2023-03-24T05:01:24;14.40;56.70
18177;DHT22;9213;50.858;3.964;2023-03-24T05:03:54;14.30;56.90
18177;DHT22;9213;50.858;3.964;2023-03-24T05:06:21;14.30;57.00
18177;DHT22;9213;50.858;3.964;2023-03-24T05:08:48;14.20;57.10
18177;DHT22;9213;50.858;3.964;2023-03-24T05:11:17;14.20;57.20
18177;DHT22;9213;50.858;3.964;2023-03-24T05:13:44;14.20;57.20
18177;DHT22;9213;50.858;3.964;2023-03-24T05:16:12;14.10;57.30
18177;DHT22;9213;50.858;3.964;2023-03-24T05:18:41;14.10;57.50
18177;DHT22;9213;50.858;3.964;2023-03-24T05:21:08;14.10;57.50
18177;DHT22;9213;50.858;3.964;2023-03-24T05:23:36;14.00;57.50
18177;DHT22;9213;50.858;3.964;2023-03-24T05:26:03;14.00;57.50
18177;DHT22;9213;50.858;3.964;2023-03-24T05:28:30;14.00;57.60
18177;DHT22;9213;50.858;3.964;2023-03-24T05:30:57;14.00;57.70
18177;DHT22;9213;50.858;3.964;2023-03-24T05:33:26;13.90;57.70
18177;DHT22;9213;50.858;3.964;2023-03-24T05:35:54;13.90;57.80
18177;DHT22;9213;50.858;3.964;2023-03-24T05:38:21;13.90;57.90
18177;DHT22;9213;50.858;3.964;2023-03-24T05:40:48;13.90;57.90
18177;DHT22;9213;50.858;3.964;2023-03-24T05:43:15;13.80;57.90
18177;DHT22;9213;50.858;3.964;2023-03-24T05:45:42;13.80;57.90
18177;DHT22;9213;50.858;3.964;2023-03-24T05:48:09;13.80;58.00
18177;DHT22;9213;50.858;3.964;2023-03-24T05:50:36;13.80;58.00
18177;DHT22;9213;50.858;3.964;2023-03-24T05:53:04;13.80;58.00
18177;DHT22;9213;50.858;3.964;2023-03-24T05:55:32;13.80;58.10
18177;DHT22;9213;50.858;3.964;2023-03-24T05:57:59;13.80;58.10
18177;DHT22;9213;50.858;3.964;2023-03-24T06:00:27;13.80;58.20
18177;DHT22;9213;50.858;3.964;2023-03-24T06:02:55;13.70;58.30
18177;DHT22;9213;50.858;3.964;2023-03-24T06:05:22;13.80;58.40
18177;DHT22;9213;50.858;3.964;2023-03-24T06:07:50;13.90;58.50
18177;DHT22;9213;50.858;3.964;2023-03-24T06:10:25;13.90;58.30
18177;DHT22;9213;50.858;3.964;2023-03-24T06:12:53;14.00;58.10
18177;DHT22;9213;50.858;3.964;2023-03-24T06:15:20;14.00;57.90
18177;DHT22;9213;50.858;3.964;2023-03-24T06:17:49;14.00;57.80
18177;DHT22;9213;50.858;3.964;2023-03-24T06:20:19;14.00;58.60
18177;DHT22;9213;50.858;3.964;2023-03-24T06:22:46;14.00;58.00
18177;DHT22;9213;50.858;3.964;2023-03-24T06:25:17;14.10;58.30
18177;DHT22;9213;50.858;3.964;2023-03-24T06:27:47;14.20;58.40
18177;DHT22;9213;50.858;3.964;2023-03-24T06:30:16;14.30;58.10
18177;DHT22;9213;50.858;3.964;2023-03-24T06:32:44;14.50;57.90
18177;DHT22;9213;50.858;3.964;2023-03-24T06:35:12;14.60;58.20
18177;DHT22;9213;50.858;3.964;2023-03-24T06:37:40;14.70;57.30
18177;DHT22;9213;50.858;3.964;2023-03-24T06:40:08;14.70;56.90
18177;DHT22;9213;50.858;3.964;2023-03-24T06:42:38;14.70;56.80
18177;DHT22;9213;50.858;3.964;2023-03-24T06:45:07;14.80;56.70
18177;DHT22;9213;50.858;3.964;2023-03-24T06:47:35;14.80;56.70
18177;DHT22;9213;50.858;3.964;2023-03-24T06:50:02;14.90;56.70
18177;DHT22;9213;50.858;3.964;2023-03-24T06:52:29;15.00;56.70
18177;DHT22;9213;50.858;3.964;2023-03-24T06:54:56;15.10;56.70
18177;DHT22;9213;50.858;3.964;2023-03-24T06:57:23;15.20;56.40
18177;DHT22;9213;50.858;3.964;2023-03-24T06:59:50;15.30;55.90
18177;DHT22;9213;50.858;3.964;2023-03-24T07:02:19;15.50;55.80
18177;DHT22;9213;50.858;3.964;2023-03-24T07:04:46;15.60;55.60
18177;DHT22;9213;50.858;3.964;2023-03-24T07:07:13;15.80;55.70
18177;DHT22;9213;50.858;3.964;2023-03-24T07:09:40;16.10;55.40
18177;DHT22;9213;50.858;3.964;2023-03-24T07:12:07;16.50;54.50
18177;DHT22;9213;50.858;3.964;2023-03-24T07:14:36;17.00;53.70
18177;DHT22;9213;50.858;3.964;2023-03-24T07:17:03;17.50;52.50
18177;DHT22;9213;50.858;3.964;2023-03-24T07:19:32;17.90;51.10
18177;DHT22;9213;50.858;3.964;2023-03-24T07:21:59;18.20;49.70
18177;DHT22;9213;50.858;3.964;2023-03-24T07:24:26;18.30;49.10
18177;DHT22;9213;50.858;3.964;2023-03-24T07:26:53;18.50;49.20
18177;DHT22;9213;50.858;3.964;2023-03-24T07:29:20;18.50;47.80
18177;DHT22;9213;50.858;3.964;2023-03-24T07:31:49;18.50;47.10
18177;DHT22;9213;50.858;3.964;2023-03-24T07:34:17;18.40;47.40
18177;DHT22;9213;50.858;3.964;2023-03-24T07:36:46;18.20;47.70
18177;DHT22;9213;50.858;3.964;2023-03-24T07:39:13;18.10;47.80
18177;DHT22;9213;50.858;3.964;2023-03-24T07:41:40;18.00;48.10
18177;DHT22;9213;50.858;3.964;2023-03-24T07:44:08;18.10;49.80
18177;DHT22;9213;50.858;3.964;2023-03-24T07:46:35;18.70;49.80
18177;DHT22;9213;50.858;3.964;2023-03-24T07:49:02;19.60;47.90
18177;DHT22;9213;50.858;3.964;2023-03-24T07:51:29;20.70;45.20
18177;DHT22;9213;50.858;3.964;2023-03-24T07:53:57;21.70;42.70
18177;DHT22;9213;50.858;3.964;2023-03-24T07:56:24;22.70;40.30
18177;DHT22;9213;50.858;3.964;2023-03-24T07:58:51;23.60;38.40
18177;DHT22;9213;50.858;3.964;2023-03-24T08:01:18;24.10;36.60
18177;DHT22;9213;50.858;3.964;2023-03-24T08:03:45;24.40;36.00
18177;DHT22;9213;50.858;3.964;2023-03-24T08:06:18;24.60;35.10
18177;DHT22;9213;50.858;3.964;2023-03-24T08:08:45;24.40;34.30
18177;DHT22;9213;50.858;3.964;2023-03-24T08:11:15;24.00;34.50
18177;DHT22;9213;50.858;3.964;2023-03-24T08:13:42;23.70;35.10
18177;DHT22;9213;50.858;3.964;2023-03-24T08:16:09;23.60;35.50
18177;DHT22;9213;50.858;3.964;2023-03-24T08:18:36;23.70;35.60
18177;DHT22;9213;50.858;3.964;2023-03-24T08:21:03;23.90;35.20
18177;DHT22;9213;50.858;3.964;2023-03-24T08:23:30;24.10;34.70
18177;DHT22;9213;50.858;3.964;2023-03-24T08:25:57;24.50;34.20
18177;DHT22;9213;50.858;3.964;2023-03-24T08:28:26;24.90;33.40
18177;DHT22;9213;50.858;3.964;2023-03-24T08:30:53;25.00;33.00
18177;DHT22;9213;50.858;3.964;2023-03-24T08:33:20;25.20;32.60
18177;DHT22;9213;50.858;3.964;2023-03-24T08:35:47;25.10;32.20
18177;DHT22;9213;50.858;3.964;2023-03-24T08:38:13;24.90;32.40
18177;DHT22;9213;50.858;3.964;2023-03-24T08:40:41;24.50;33.20
18177;DHT22;9213;50.858;3.964;2023-03-24T08:43:12;24.10;33.60
18177;DHT22;9213;50.858;3.964;2023-03-24T08:45:41;23.90;34.00
18177;DHT22;9213;50.858;3.964;2023-03-24T08:48:08;23.60;34.50
18177;DHT22;9213;50.858;3.964;2023-03-24T08:50:37;23.40;34.90
18177;DHT22;9213;50.858;3.964;2023-03-24T08:53:06;23.20;35.10
18177;DHT22;9213;50.858;3.964;2023-03-24T08:55:34;22.90;35.40
18177;DHT22;9213;50.858;3.964;2023-03-24T08:58:06;22.60;35.60
18177;DHT22;9213;50.858;3.964;2023-03-24T09:00:33;22.40;36.10
18177;DHT22;9213;50.858;3.964;2023-03-24T09:03:01;22.20;36.60
18177;DHT22;9213;50.858;3.964;2023-03-24T09:05:31;22.00;36.90
18177;DHT22;9213;50.858;3.964;2023-03-24T09:07:58;21.90;37.60
18177;DHT22;9213;50.858;3.964;2023-03-24T09:10:26;21.90;37.80
18177;DHT22;9213;50.858;3.964;2023-03-24T09:12:53;22.00;38.40
18177;DHT22;9213;50.858;3.964;2023-03-24T09:15:20;22.30;37.70
18177;DHT22;9213;50.858;3.964;2023-03-24T09:17:47;22.80;37.10
18177;DHT22;9213;50.858;3.964;2023-03-24T09:20:15;23.20;36.30
18177;DHT22;9213;50.858;3.964;2023-03-24T09:22:44;23.40;35.10
18177;DHT22;9213;50.858;3.964;2023-03-24T09:25:14;23.40;34.60
18177;DHT22;9213;50.858;3.964;2023-03-24T09:27:41;23.30;34.80
18177;DHT22;9213;50.858;3.964;2023-03-24T09:30:09;23.00;35.10
18177;DHT22;9213;50.858;3.964;2023-03-24T09:32:36;22.90;35.40
18177;DHT22;9213;50.858;3.964;2023-03-24T09:35:04;22.80;35.50
18177;DHT22;9213;50.858;3.964;2023-03-24T09:37:35;22.80;35.80
18177;DHT22;9213;50.858;3.964;2023-03-24T09:40:04;22.90;35.80
18177;DHT22;9213;50.858;3.964;2023-03-24T09:42:34;23.10;36.10
18177;DHT22;9213;50.858;3.964;2023-03-24T09:45:05;23.30;35.60
18177;DHT22;9213;50.858;3.964;2023-03-24T09:47:36;23.60;34.80
18177;DHT22;9213;50.858;3.964;2023-03-24T09:50:10;23.70;34.80
18177;DHT22;9213;50.858;3.964;2023-03-24T09:52:46;23.70;34.10
18177;DHT22;9213;50.858;3.964;2023-03-24T09:55:17;23.60;34.10
18177;DHT22;9213;50.858;3.964;2023-03-24T09:57:46;23.50;34.20
18177;DHT22;9213;50.858;3.964;2023-03-24T10:00:19;23.60;34.30
18177;DHT22;9213;50.858;3.964;2023-03-24T10:02:47;23.60;34.00
18177;DHT22;9213;50.858;3.964;2023-03-24T10:05:17;23.50;34.20
18177;DHT22;9213;50.858;3.964;2023-03-24T10:07:51;23.40;33.80
18177;DHT22;9213;50.858;3.964;2023-03-24T10:10:28;23.30;34.20
18177;DHT22;9213;50.858;3.964;2023-03-24T10:13:02;23.10;34.60
18177;DHT22;9213;50.858;3.964;2023-03-24T10:15:35;23.00;34.70
18177;DHT22;9213;50.858;3.964;2023-03-24T10:18:17;22.70;35.20
18177;DHT22;9213;50.858;3.964;2023-03-24T10:20:50;22.60;35.30
18177;DHT22;9213;50.858;3.964;2023-03-24T10:23:26;22.30;35.20
18177;DHT22;9213;50.858;3.964;2023-03-24T10:26:01;22.10;35.80
18177;DHT22;9213;50.858;3.964;2023-03-24T10:28:36;21.90;36.20
18177;DHT22;9213;50.858;3.964;2023-03-24T10:31:09;21.80;36.10
18177;DHT22;9213;50.858;3.964;2023-03-24T10:33:39;21.60;36.20
18177;DHT22;9213;50.858;3.964;2023-03-24T10:36:11;21.50;36.50
18177;DHT22;9213;50.858;3.964;2023-03-24T10:38:41;21.50;37.00
18177;DHT22;9213;50.858;3.964;2023-03-24T10:41:14;21.50;37.10
18177;DHT22;9213;50.858;3.964;2023-03-24T10:43:43;21.50;37.20
18177;DHT22;9213;50.858;3.964;2023-03-24T10:46:13;21.60;37.60
18177;DHT22;9213;50.858;3.964;2023-03-24T10:48:43;21.90;37.30
18177;DHT22;9213;50.858;3.964;2023-03-24T10:51:14;22.10;36.00
18177;DHT22;9213;50.858;3.964;2023-03-24T10:53:43;22.20;35.60
18177;DHT22;9213;50.858;3.964;2023-03-24T10:56:15;22.20;35.70
18177;DHT22;9213;50.858;3.964;2023-03-24T10:58:43;22.10;35.90
18177;DHT22;9213;50.858;3.964;2023-03-24T11:01:23;22.00;35.80
18177;DHT22;9213;50.858;3.964;2023-03-24T11:03:57;22.10;36.20
18177;DHT22;9213;50.858;3.964;2023-03-24T11:06:25;22.00;35.80
18177;DHT22;9213;50.858;3.964;2023-03-24T11:09:09;21.90;35.80
18177;DHT22;9213;50.858;3.964;2023-03-24T11:11:41;21.60;36.30
18177;DHT22;9213;50.858;3.964;2023-03-24T11:14:20;21.20;36.80
18177;DHT22;9213;50.858;3.964;2023-03-24T11:16:50;20.90;37.90
18177;DHT22;9213;50.858;3.964;2023-03-24T11:19:19;20.60;38.90
18177;DHT22;9213;50.858;3.964;2023-03-24T11:21:47;20.60;39.70
18177;DHT22;9213;50.858;3.964;2023-03-24T11:24:17;20.50;40.10
18177;DHT22;9213;50.858;3.964;2023-03-24T11:26:45;20.60;39.90
18177;DHT22;9213;50.858;3.964;2023-03-24T11:29:17;20.70;39.50
18177;DHT22;9213;50.858;3.964;2023-03-24T11:31:50;20.90;39.10
18177;DHT22;9213;50.858;3.964;2023-03-24T11:34:20;21.30;39.10
18177;DHT22;9213;50.858;3.964;2023-03-24T11:36:51;21.50;38.30
18177;DHT22;9213;50.858;3.964;2023-03-24T11:39:22;21.70;37.60
18177;DHT22;9213;50.858;3.964;2023-03-24T11:42:11;21.90;37.70
18177;DHT22;9213;50.858;3.964;2023-03-24T11:44:47;21.90;37.70
18177;DHT22;9213;50.858;3.964;2023-03-24T11:47:23;22.10;37.10
18177;DHT22;9213;50.858;3.964;2023-03-24T11:50:04;22.20;36.70
18177;DHT22;9213;50.858;3.964;2023-03-24T11:52:44;22.50;36.60
18177;DHT22;9213;50.858;3.964;2023-03-24T11:55:16;22.70;36.80
18177;DHT22;9213;50.858;3.964;2023-03-24T11:57:49;23.00;35.40
18177;DHT22;9213;50.858;3.964;2023-03-24T12:00:21;23.10;35.00
18177;DHT22;9213;50.858;3.964;2023-03-24T12:05:51;23.40;34.60
18177;DHT22;9213;50.858;3.964;2023-03-24T12:08:33;23.20;34.00
18177;DHT22;9213;50.858;3.964;2023-03-24T12:11:12;23.00;35.00
18177;DHT22;9213;50.858;3.964;2023-03-24T12:13:41;22.60;36.30
18177;DHT22;9213;50.858;3.964;2023-03-24T12:19:36;21.70;39.80
18177;DHT22;9213;50.858;3.964;2023-03-24T12:22:17;21.40;41.70
18177;DHT22;9213;50.858;3.964;2023-03-24T12:25:07;21.20;42.40
18177;DHT22;9213;50.858;3.964;2023-03-24T12:27:50;21.10;42.60
18177;DHT22;9213;50.858;3.964;2023-03-24T12:30:23;20.90;42.40
18177;DHT22;9213;50.858;3.964;2023-03-24T12:33:01;20.70;42.00
18177;DHT22;9213;50.858;3.964;2023-03-24T12:35:56;20.60;42.00
18177;DHT22;9213;50.858;3.964;2023-03-24T12:38:37;20.50;42.10
18177;DHT22;9213;50.858;3.964;2023-03-24T12:41:49;20.40;42.10
18177;DHT22;9213;50.858;3.964;2023-03-24T12:44:37;20.20;42.20
18177;DHT22;9213;50.858;3.964;2023-03-24T12:47:20;20.00;42.20
18177;DHT22;9213;50.858;3.964;2023-03-24T12:50:02;19.90;41.90
18177;DHT22;9213;50.858;3.964;2023-03-24T12:52:54;19.60;42.30
18177;DHT22;9213;50.858;3.964;2023-03-24T12:55:29;19.50;44.00
18177;DHT22;9213;50.858;3.964;2023-03-24T12:58:01;19.60;45.00
18177;DHT22;9213;50.858;3.964;2023-03-24T13:00:34;19.70;44.90
18177;DHT22;9213;50.858;3.964;2023-03-24T13:03:05;19.90;45.00
18177;DHT22;9213;50.858;3.964;2023-03-24T13:05:40;20.00;44.90
18177;DHT22;9213;50.858;3.964;2023-03-24T13:08:12;20.20;44.50
18177;DHT22;9213;50.858;3.964;2023-03-24T13:10:42;20.30;43.80
18177;DHT22;9213;50.858;3.964;2023-03-24T13:13:16;20.30;43.70
18177;DHT22;9213;50.858;3.964;2023-03-24T13:15:48;20.40;44.00
18177;DHT22;9213;50.858;3.964;2023-03-24T13:18:26;20.60;43.20
18177;DHT22;9213;50.858;3.964;2023-03-24T13:20:55;20.70;43.70
18177;DHT22;9213;50.858;3.964;2023-03-24T13:23:43;20.90;43.60
18177;DHT22;9213;50.858;3.964;2023-03-24T13:26:20;21.10;43.30
18177;DHT22;9213;50.858;3.964;2023-03-24T13:28:58;21.20;42.80
18177;DHT22;9213;50.858;3.964;2023-03-24T13:31:30;21.40;41.50
18177;DHT22;9213;50.858;3.964;2023-03-24T13:34:00;21.50;40.30
18177;DHT22;9213;50.858;3.964;2023-03-24T13:36:37;21.40;40.30
18177;DHT22;9213;50.858;3.964;2023-03-24T13:39:11;21.40;40.10
18177;DHT22;9213;50.858;3.964;2023-03-24T13:41:39;21.30;40.10
18177;DHT22;9213;50.858;3.964;2023-03-24T13:44:13;21.30;40.20
18177;DHT22;9213;50.858;3.964;2023-03-24T13:47:11;21.30;39.90
18177;DHT22;9213;50.858;3.964;2023-03-24T13:49:41;21.30;39.60
18177;DHT22;9213;50.858;3.964;2023-03-24T13:52:22;21.30;39.90
18177;DHT22;9213;50.858;3.964;2023-03-24T13:54:55;21.40;39.50
18177;DHT22;9213;50.858;3.964;2023-03-24T13:57:24;21.40;39.40
18177;DHT22;9213;50.858;3.964;2023-03-24T14:00:16;21.40;39.40
18177;DHT22;9213;50.858;3.964;2023-03-24T14:02:48;21.60;39.70
18177;DHT22;9213;50.858;3.964;2023-03-24T14:05:54;21.60;39.00
18177;DHT22;9213;50.858;3.964;2023-03-24T14:08:39;21.70;39.30
18177;DHT22;9213;50.858;3.964;2023-03-24T14:11:43;21.80;38.90
18177;DHT22;9213;50.858;3.964;2023-03-24T14:14:20;21.80;38.70
18177;DHT22;9213;50.858;3.964;2023-03-24T14:16:52;21.70;39.00
18177;DHT22;9213;50.858;3.964;2023-03-24T14:19:30;21.70;39.20
18177;DHT22;9213;50.858;3.964;2023-03-24T14:22:09;21.70;39.30
18177;DHT22;9213;50.858;3.964;2023-03-24T14:24:39;21.80;39.30
18177;DHT22;9213;50.858;3.964;2023-03-24T14:27:34;21.70;39.00
18177;DHT22;9213;50.858;3.964;2023-03-24T14:30:10;21.80;39.20
18177;DHT22;9213;50.858;3.964;2023-03-24T14:32:42;21.60;38.70
18177;DHT22;9213;50.858;3.964;2023-03-24T14:35:23;21.60;39.20
18177;DHT22;9213;50.858;3.964;2023-03-24T14:37:54;21.60;39.30
18177;DHT22;9213;50.858;3.964;2023-03-24T14:40:27;21.50;39.30
18177;DHT22;9213;50.858;3.964;2023-03-24T14:43:04;21.40;39.00
18177;DHT22;9213;50.858;3.964;2023-03-24T14:45:40;21.40;39.10
18177;DHT22;9213;50.858;3.964;2023-03-24T14:48:22;21.30;39.20
18177;DHT22;9213;50.858;3.964;2023-03-24T14:50:54;21.30;39.20
18177;DHT22;9213;50.858;3.964;2023-03-24T14:53:24;21.20;39.10
18177;DHT22;9213;50.858;3.964;2023-03-24T14:55:52;21.10;39.60
18177;DHT22;9213;50.858;3.964;2023-03-24T14:58:21;21.10;39.30
18177;DHT22;9213;50.858;3.964;2023-03-24T15:00:52;21.10;38.90
18177;DHT22;9213;50.858;3.964;2023-03-24T15:03:26;21.00;38.70
18177;DHT22;9213;50.858;3.964;2023-03-24T15:06:13;21.00;38.70
18177;DHT22;9213;50.858;3.964;2023-03-24T15:08:44;21.00;38.20
18177;DHT22;9213;50.858;3.964;2023-03-24T15:11:14;20.90;37.90
18177;DHT22;9213;50.858;3.964;2023-03-24T15:13:42;20.90;38.00
18177;DHT22;9213;50.858;3.964;2023-03-24T15:16:17;20.80;38.20
18177;DHT22;9213;50.858;3.964;2023-03-24T15:18:46;20.90;38.00
18177;DHT22;9213;50.858;3.964;2023-03-24T15:21:23;20.80;37.80
18177;DHT22;9213;50.858;3.964;2023-03-24T15:23:51;20.80;38.20
18177;DHT22;9213;50.858;3.964;2023-03-24T15:26:19;20.70;38.50
18177;DHT22;9213;50.858;3.964;2023-03-24T15:28:53;20.70;38.60
18177;DHT22;9213;50.858;3.964;2023-03-24T15:31:22;20.80;38.40
18177;DHT22;9213;50.858;3.964;2023-03-24T15:33:50;20.70;38.30
18177;DHT22;9213;50.858;3.964;2023-03-24T15:36:21;20.70;38.60
18177;DHT22;9213;50.858;3.964;2023-03-24T15:38:50;20.70;38.90
18177;DHT22;9213;50.858;3.964;2023-03-24T15:41:18;20.60;38.70
18177;DHT22;9213;50.858;3.964;2023-03-24T15:43:50;20.50;38.70
18177;DHT22;9213;50.858;3.964;2023-03-24T15:46:28;20.40;38.80
18177;DHT22;9213;50.858;3.964;2023-03-24T15:48:57;20.40;39.20
18177;DHT22;9213;50.858;3.964;2023-03-24T15:51:47;20.20;39.10
18177;DHT22;9213;50.858;3.964;2023-03-24T15:54:23;20.20;39.70
18177;DHT22;9213;50.858;3.964;2023-03-24T15:57:13;20.20;39.80
18177;DHT22;9213;50.858;3.964;2023-03-24T15:59:46;20.20;39.70
18177;DHT22;9213;50.858;3.964;2023-03-24T16:02:27;20.00;39.90
18177;DHT22;9213;50.858;3.964;2023-03-24T16:04:58;19.90;40.50
18177;DHT22;9213;50.858;3.964;2023-03-24T16:07:30;19.80;40.70
18177;DHT22;9213;50.858;3.964;2023-03-24T16:09:59;19.80;41.00
18177;DHT22;9213;50.858;3.964;2023-03-24T16:12:31;19.70;41.00
18177;DHT22;9213;50.858;3.964;2023-03-24T16:14:58;19.80;41.20
18177;DHT22;9213;50.858;3.964;2023-03-24T16:17:25;19.80;41.10
18177;DHT22;9213;50.858;3.964;2023-03-24T16:19:52;19.80;41.00
18177;DHT22;9213;50.858;3.964;2023-03-24T16:22:19;19.70;41.10
18177;DHT22;9213;50.858;3.964;2023-03-24T16:24:47;19.70;41.30
18177;DHT22;9213;50.858;3.964;2023-03-24T16:27:15;19.60;41.30
18177;DHT22;9213;50.858;3.964;2023-03-24T16:29:42;19.50;41.60